PWSweather.com
Personal Weather Stations
Station Observations
SANDHURSTWX
SandhurstGB

SandhurstGB

Lat: 51.3522, Lon: -0.7739

Elevation: 272.3

Station Type: Davis VP2

www.sandhurstweather.org.uk

High Low Average
Temperature 66.0°F18.9°C 47.8°F8.8°C 56.8°F13.8°C
Dew Point 56.2°F13.4°C 46.7°F8.2°C 51.8°F11.0°C
Winds 6.9 mph 11.1 kmh Calm Calm 1.0 mph WSW1.6 kmh WSW
Wind Gusts 10.4 mph16.7 kmh -- 3.0 mph4.8 kmh
Humidity 97% 66% 84%
Pressure 30.15 in1021.0 mb 29.96 in1014.6 mb -
Precipitation 0.00 in0.0 mm - -
Hour Temp Dew Point Humidity Winds Wind Gusts Pressure Precip Precip Rate Daily Precip Total
12:00 AM 51.2°F10.7°C 49.8°F9.9°C 95% Calm Calm -- 29.96 in1014.6 mb - 0.00 in0.0 mm 0.00 in0.0 mm
01:00 AM 51.3°F10.7°C 49.9°F9.9°C 95% Calm Calm -- 29.98 in1015.2 mb - 0.00 in0.0 mm 0.00 in0.0 mm
02:00 AM 51.4°F10.8°C 50.3°F10.2°C 96% Calm Calm -- 29.98 in1015.2 mb - 0.00 in0.0 mm 0.00 in0.0 mm
03:00 AM 49.9°F9.9°C 48.5°F9.2°C 95% Calm Calm -- 29.99 in1015.6 mb - 0.00 in0.0 mm 0.00 in0.0 mm
04:00 AM 49.1°F9.5°C 48.0°F8.9°C 96% Calm Calm -- 30.00 in1015.9 mb - 0.00 in0.0 mm 0.00 in0.0 mm
05:00 AM 48.8°F9.3°C 47.7°F8.7°C 96% Calm Calm -- 30.02 in1016.6 mb - 0.00 in0.0 mm 0.00 in0.0 mm
06:00 AM 48.1°F8.9°C 47.0°F8.3°C 96% Calm Calm -- 30.04 in1017.3 mb - 0.00 in0.0 mm 0.00 in0.0 mm
07:00 AM 47.8°F8.8°C 46.7°F8.2°C 96% Calm Calm -- 30.07 in1018.3 mb - 0.00 in0.0 mm 0.00 in0.0 mm
08:00 AM 50.6°F10.3°C 49.8°F9.9°C 97% Calm Calm -- 30.09 in1019.0 mb - 0.00 in0.0 mm 0.00 in0.0 mm
09:00 AM 54.8°F12.7°C 54.0°F12.2°C 97% Calm Calm -- 30.10 in1019.3 mb - 0.00 in0.0 mm 0.00 in0.0 mm
10:00 AM 60.3°F15.7°C 55.8°F13.2°C 85% 3.5 mph NW5.6 kmh NW 9.2 mph14.8 kmh 30.11 in1019.6 mb - 0.00 in0.0 mm 0.00 in0.0 mm
11:00 AM 62.5°F16.9°C 56.2°F13.4°C 80% 6.9 mph NW11.1 kmh NW 10.4 mph16.7 kmh 30.12 in1020.0 mb - 0.00 in0.0 mm 0.00 in0.0 mm
12:00 PM 63.8°F17.7°C 55.3°F12.9°C 74% 3.5 mph NW5.6 kmh NW 5.8 mph9.3 kmh 30.11 in1019.6 mb - 0.00 in0.0 mm 0.00 in0.0 mm
01:00 PM 65.8°F18.8°C 54.2°F12.3°C 66% 2.3 mph NW3.7 kmh NW 4.6 mph7.4 kmh 30.11 in1019.6 mb - 0.00 in0.0 mm 0.00 in0.0 mm
02:00 PM 66.0°F18.9°C 55.1°F12.8°C 68% 5.8 mph WNW9.3 kmh WNW 9.2 mph14.8 kmh 30.11 in1019.6 mb - 0.00 in0.0 mm 0.00 in0.0 mm
03:00 PM 64.1°F17.8°C 54.1°F12.3°C 70% 4.6 mph NW7.4 kmh NW 8.1 mph13.0 kmh 30.12 in1020.0 mb - 0.00 in0.0 mm 0.00 in0.0 mm
04:00 PM 64.4°F18.0°C 54.8°F12.7°C 71% 3.5 mph WNW5.6 kmh WNW 5.8 mph9.3 kmh 30.12 in1020.0 mb - 0.00 in0.0 mm 0.00 in0.0 mm
05:00 PM 63.6°F17.6°C 54.4°F12.4°C 72% Calm Calm -- 30.11 in1019.6 mb - 0.00 in0.0 mm 0.00 in0.0 mm
06:00 PM 62.9°F17.2°C 54.1°F12.3°C 73% Calm Calm -- 30.12 in1020.0 mb - 0.00 in0.0 mm 0.00 in0.0 mm
07:00 PM 61.2°F16.2°C 52.8°F11.6°C 74% Calm Calm -- 30.13 in1020.3 mb - 0.00 in0.0 mm 0.00 in0.0 mm
08:00 PM 57.2°F14.0°C 52.1°F11.2°C 83% Calm Calm -- 30.13 in1020.3 mb - 0.00 in0.0 mm 0.00 in0.0 mm
09:00 PM 56.4°F13.6°C 51.6°F10.9°C 84% 1.2 mph WSW1.9 kmh WSW 2.3 mph3.7 kmh 30.15 in1021.0 mb - 0.00 in0.0 mm 0.00 in0.0 mm
10:00 PM 56.8°F13.8°C 50.4°F10.2°C 79% 1.2 mph WSW1.9 kmh WSW 2.3 mph3.7 kmh 30.14 in1020.7 mb - 0.00 in0.0 mm 0.00 in0.0 mm
11:00 PM 56.2°F13.4°C 49.8°F9.9°C 79% 1.2 mph SW1.9 kmh SW 2.3 mph3.7 kmh 30.14 in1020.7 mb - 0.00 in0.0 mm 0.00 in0.0 mm